Time;durP1;ratioP1;P1;durP2;ratioP2;P2;SDS_P1;SDS_P2;PMS_P1;PMS_P2;Temp;Humidity;BMP_temperature;BMP_pressure;BME280_temperature;BME280_humidity;BME280_pressure;Samples;Min_cycle;Max_cycle;Signal;HPM_P1;HPM_P2
2022/11/28 00:00:58;;;;;;;9.80;7.40;;;;;;;6.44;100.00;100939.25;5036502;28;20022;-53
2022/11/28 00:03:24;;;;;;;9.43;7.18;;;;;;;6.45;100.00;100930.41;5036797;28;20458;-50
2022/11/28 00:05:50;;;;;;;10.32;7.90;;;;;;;6.47;100.00;100932.97;5035492;28;20112;-55
2022/11/28 00:08:15;;;;;;;10.43;6.95;;;;;;;6.48;100.00;100930.25;5036463;28;20116;-51
2022/11/28 00:10:41;;;;;;;9.23;6.50;;;;;;;6.53;100.00;100926.47;5036608;28;20095;-52
2022/11/28 00:13:06;;;;;;;9.63;6.65;;;;;;;6.53;100.00;100924.72;5036361;28;20041;-51
2022/11/28 00:15:32;;;;;;;11.52;7.07;;;;;;;6.56;100.00;100926.28;5036803;28;20029;-51
2022/11/28 00:17:57;;;;;;;10.45;7.20;;;;;;;6.57;100.00;100920.94;5036535;28;20026;-50
2022/11/28 00:20:23;;;;;;;10.85;7.20;;;;;;;6.58;100.00;100920.00;5036790;28;20032;-51
2022/11/28 00:22:48;;;;;;;8.75;6.18;;;;;;;6.61;100.00;100908.41;5030555;28;20078;-51
2022/11/28 00:25:14;;;;;;;8.98;6.35;;;;;;;6.63;100.00;100914.47;5036332;28;20463;-50
2022/11/28 00:27:40;;;;;;;7.70;6.25;;;;;;;6.67;100.00;100919.44;5036484;28;20076;-53
2022/11/28 00:30:06;;;;;;;8.73;5.90;;;;;;;6.70;100.00;100915.78;5036715;28;20338;-51
2022/11/28 00:32:31;;;;;;;6.30;5.28;;;;;;;6.74;100.00;100908.53;5035498;28;20486;-51
2022/11/28 00:34:56;;;;;;;7.07;5.60;;;;;;;6.78;100.00;100902.16;5037483;28;20051;-50
2022/11/28 00:37:21;;;;;;;8.27;5.35;;;;;;;6.79;100.00;100888.81;5036350;28;20025;-51
2022/11/28 00:39:47;;;;;;;7.50;5.38;;;;;;;6.82;100.00;100895.72;5035642;28;20068;-52
2022/11/28 00:42:12;;;;;;;7.25;5.43;;;;;;;6.85;100.00;100900.84;5034968;28;20475;-51
2022/11/28 00:44:37;;;;;;;9.50;5.55;;;;;;;6.88;100.00;100899.78;5035120;28;20041;-52
2022/11/28 00:47:03;;;;;;;6.63;5.47;;;;;;;6.90;100.00;100903.19;5032627;28;20037;-50
2022/11/28 00:49:28;;;;;;;6.50;5.28;;;;;;;6.90;100.00;100884.72;5033320;28;20021;-51
2022/11/28 00:51:53;;;;;;;7.70;4.88;;;;;;;6.90;100.00;100896.13;5032874;28;20025;-52
2022/11/28 00:54:18;;;;;;;6.63;4.97;;;;;;;6.91;100.00;100889.91;5033037;28;20025;-51
2022/11/28 00:56:44;;;;;;;6.90;4.88;;;;;;;6.92;100.00;100885.47;5032954;28;20032;-53
2022/11/28 00:59:09;;;;;;;7.40;5.38;;;;;;;6.93;100.00;100889.78;5033637;28;20053;-55
2022/11/28 01:01:42;;;;;;;6.35;5.20;;;;;;;6.93;100.00;100888.03;5032593;28;20025;-52
2022/11/28 01:04:11;;;;;;;8.30;4.78;;;;;;;6.92;100.00;100893.38;5032896;28;20033;-54
2022/11/28 01:06:45;;;;;;;8.18;4.93;;;;;;;6.92;100.00;100893.38;5033048;28;20025;-51
2022/11/28 01:09:20;;;;;;;8.55;5.30;;;;;;;6.93;100.00;100889.78;5033086;28;20068;-51
2022/11/28 01:11:50;;;;;;;5.82;5.10;;;;;;;6.93;100.00;100897.72;5032785;28;20091;-51
2022/11/28 01:14:18;;;;;;;8.93;5.20;;;;;;;6.90;100.00;100892.63;5032260;28;20025;-51
2022/11/28 01:16:43;;;;;;;7.60;5.30;;;;;;;6.92;100.00;100894.22;5032566;28;20029;-51
2022/11/28 01:19:09;;;;;;;8.30;5.43;;;;;;;6.91;100.00;100886.41;5036092;28;20140;-51
2022/11/28 01:21:34;;;;;;;8.60;4.95;;;;;;;6.90;100.00;100896.13;5032291;28;20026;-52
2022/11/28 01:24:01;;;;;;;8.00;5.10;;;;;;;6.91;100.00;100891.69;5032533;28;20087;-51
2022/11/28 01:26:28;;;;;;;5.60;4.82;;;;;;;6.90;100.00;100888.19;5031989;28;20060;-54
2022/11/28 01:28:54;;;;;;;7.95;4.90;;;;;;;6.89;100.00;100886.50;5031108;28;20120;-53
2022/11/28 01:31:22;;;;;;;5.30;4.55;;;;;;;6.90;100.00;100887.34;5032318;28;20127;-51
2022/11/28 01:33:47;;;;;;;6.50;4.95;;;;;;;6.91;100.00;100894.31;5031910;28;20037;-53
2022/11/28 01:36:14;;;;;;;6.50;5.00;;;;;;;6.90;100.00;100890.00;5032128;28;20029;-51
2022/11/28 01:38:40;;;;;;;7.13;4.50;;;;;;;6.92;100.00;100890.75;5032184;28;20061;-51
2022/11/28 01:41:06;;;;;;;5.72;4.72;;;;;;;6.91;100.00;100892.56;5042172;28;20053;-52
2022/11/28 01:43:31;;;;;;;7.70;4.70;;;;;;;6.92;100.00;100896.03;5031725;28;20391;-53
2022/11/28 01:45:57;;;;;;;5.55;5.03;;;;;;;6.89;100.00;100897.06;5032368;28;20036;-51
2022/11/28 01:48:30;;;;;;;7.55;5.07;;;;;;;6.88;100.00;100895.38;5032266;28;20487;-54
2022/11/28 01:51:00;;;;;;;9.43;5.05;;;;;;;6.86;100.00;100889.31;5020758;28;20086;-51
2022/11/28 01:53:26;;;;;;;;;;;;;;;6.92;100.00;100886.31;5032168;28;20356;-51
2022/11/28 01:55:56;;;;;;;6.57;5.15;;;;;;;6.84;100.00;100888.56;5032217;28;19951;-51
2022/11/28 01:58:23;;;;;;;5.80;4.90;;;;;;;6.82;100.00;100891.28;5031681;28;20087;-51
2022/11/28 02:00:48;;;;;;;6.45;5.53;;;;;;;6.81;100.00;100889.59;5032525;28;20029;-51
2022/11/28 02:03:19;;;;;;;8.23;5.18;;;;;;;6.79;100.00;100886.19;5031231;28;20026;-50
2022/11/28 02:05:47;;;;;;;8.55;5.18;;;;;;;6.78;100.00;100884.50;5032314;28;20036;-52
2022/11/28 02:08:12;;;;;;;7.72;4.88;;;;;;;6.78;100.00;100883.66;5031454;28;20037;-52
2022/11/28 02:11:02;;;;;;;7.43;5.57;;;;;;;6.78;100.00;100873.09;5031626;28;20029;-55
2022/11/28 02:13:52;;;;;;;8.90;5.10;;;;;;;6.76;100.00;100867.06;5031782;28;20025;-52
2022/11/28 02:16:36;;;;;;;8.15;4.57;;;;;;;6.76;100.00;100869.69;5029121;28;20112;-55
2022/11/28 02:19:19;;;;;;;8.70;4.90;;;;;;;6.76;100.00;100870.56;5031353;28;20395;-51
2022/11/28 02:22:08;;;;;;;7.35;4.90;;;;;;;6.75;100.00;100866.22;5031915;28;20111;-53
2022/11/28 02:24:44;;;;;;;6.95;5.32;;;;;;;6.75;100.00;100868.84;5031560;28;20030;-51
2022/11/28 02:27:22;;;;;;;8.15;4.65;;;;;;;6.74;100.00;100869.78;5036474;28;20072;-52
2022/11/28 02:30:04;;;;;;;8.52;4.88;;;;;;;6.75;100.00;100870.66;5029985;28;20112;-53
2022/11/28 02:32:51;;;;;;;6.82;4.65;;;;;;;6.73;100.00;100867.22;5031016;28;20087;-50
2022/11/28 02:35:29;;;;;;;7.13;5.50;;;;;;;6.73;100.00;100868.09;5028499;28;20031;-52
2022/11/28 02:38:16;;;;;;;6.10;4.78;;;;;;;6.74;100.00;100861.03;5032133;28;20067;-52
2022/11/28 02:40:54;;;;;;;8.35;5.25;;;;;;;6.73;100.00;100872.50;5032219;28;20029;-53
2022/11/28 02:43:51;;;;;;;7.95;5.35;;;;;;;6.69;100.00;100866.56;5032252;28;20133;-50
2022/11/28 02:46:27;;;;;;;9.00;4.97;;;;;;;6.69;100.00;100863.09;5030859;28;20375;-51
2022/11/28 02:49:20;;;;;;;5.80;5.20;;;;;;;6.70;100.00;100870.09;5031530;28;20430;-53
2022/11/28 02:52:02;;;;;;;7.50;5.55;;;;;;;6.66;100.00;100867.63;5021383;28;20103;-51
2022/11/28 02:54:30;;;;;;;6.32;4.93;;;;;;;6.63;100.00;100869.59;5032156;28;20479;-51
2022/11/28 02:56:55;;;;;;;6.05;4.95;;;;;;;6.62;100.00;100866.09;5032513;28;20057;-50
2022/11/28 02:59:31;;;;;;;8.32;5.30;;;;;;;6.62;100.00;100857.34;5028703;28;20076;-50
2022/11/28 03:01:57;;;;;;;6.93;5.53;;;;;;;6.59;100.00;100861.00;5032639;28;20396;-51
2022/11/28 03:04:40;;;;;;;6.07;4.88;;;;;;;6.60;100.00;100851.31;5031356;28;20108;-51
2022/11/28 03:07:28;;;;;;;10.18;5.00;;;;;;;6.60;100.00;100851.31;5032387;28;20100;-50
2022/11/28 03:10:13;;;;;;;9.05;5.40;;;;;;;6.60;100.00;100853.94;5014504;28;20108;-50
2022/11/28 03:13:02;;;;;;;8.07;4.97;;;;;;;6.60;100.00;100846.88;5031990;28;20066;-50
2022/11/28 03:15:43;;;;;;;6.68;4.75;;;;;;;6.60;100.00;100843.38;5031427;28;20441;-51
2022/11/28 03:18:22;;;;;;;5.10;4.63;;;;;;;6.59;100.00;100853.06;5032011;28;20037;-51
2022/11/28 03:21:11;;;;;;;6.68;4.70;;;;;;;6.59;100.00;100844.31;5038481;28;20049;-51
2022/11/28 03:23:43;;;;;;;7.57;4.15;;;;;;;6.58;100.00;100843.47;5031341;28;20099;-50
2022/11/28 03:26:11;;;;;;;4.88;4.18;;;;;;;6.57;100.00;100843.56;5031852;28;20567;-52
2022/11/28 03:28:44;;;;;;;5.75;4.72;;;;;;;6.56;100.00;100839.22;5031271;28;20104;-50
2022/11/28 03:31:14;;;;;;;5.55;4.60;;;;;;;6.54;100.00;100839.31;5028559;28;20030;-51
2022/11/28 03:33:46;;;;;;;7.63;4.68;;;;;;;6.56;100.00;100839.22;5031900;28;20164;-51
2022/11/28 03:36:19;;;;;;;7.63;4.25;;;;;;;6.59;100.00;100849.59;5031667;28;20037;-50
2022/11/28 03:38:48;;;;;;;7.93;4.70;;;;;;;6.57;100.00;100843.56;5028541;28;20029;-51
2022/11/28 03:41:20;;;;;;;9.52;4.93;;;;;;;6.57;100.00;100840.94;5032461;28;20029;-50
2022/11/28 03:43:52;;;;;;;7.38;4.68;;;;;;;6.54;100.00;100836.66;5032068;28;20479;-50
2022/11/28 03:46:21;;;;;;;6.28;4.93;;;;;;;6.56;100.00;100841.84;5042577;28;20183;-51
2022/11/28 03:48:52;;;;;;;8.23;4.93;;;;;;;6.51;100.00;100836.84;5030580;28;20038;-53
2022/11/28 03:51:23;;;;;;;7.43;5.15;;;;;;;6.53;100.00;100840.25;5031812;28;20483;-51
2022/11/28 03:53:55;;;;;;;7.70;4.82;;;;;;;6.52;100.00;100833.28;5030978;28;20480;-51
2022/11/28 03:56:35;;;;;;;6.65;4.72;;;;;;;6.55;100.00;100843.66;5032525;28;20075;-51
2022/11/28 03:59:08;;;;;;;7.63;4.45;;;;;;;6.55;100.00;100843.66;5031650;28;20033;-52
2022/11/28 04:01:55;;;;;;;6.20;4.82;;;;;;;6.57;100.00;100841.75;5031209;28;20033;-54
2022/11/28 04:04:34;;;;;;;6.03;4.57;;;;;;;6.55;100.00;100841.00;5025705;28;20044;-51
2022/11/28 04:07:11;;;;;;;7.28;5.03;;;;;;;6.55;100.00;100840.19;5031024;28;20036;-51
2022/11/28 04:09:49;;;;;;;6.32;4.90;;;;;;;6.56;100.00;100852.41;5031270;28;20030;-52
2022/11/28 04:12:53;;;;;;;6.82;4.82;;;;;;;6.56;100.00;100849.78;5031126;28;20022;-51
2022/11/28 04:15:37;;;;;;;7.50;4.70;;;;;;;6.56;100.00;100841.84;5031413;28;20487;-52
2022/11/28 04:18:25;;;;;;;6.22;4.97;;;;;;;6.56;100.00;100849.78;5033496;28;20119;-50
2022/11/28 04:21:02;;;;;;;6.38;4.95;;;;;;;6.54;100.00;100849.03;5026145;28;20037;-50
2022/11/28 04:23:29;;;;;;;6.88;4.68;;;;;;;6.53;100.00;100839.41;5035281;28;20430;-54
2022/11/28 04:26:00;;;;;;;8.02;5.10;;;;;;;6.53;100.00;100847.31;5034651;28;20103;-49
2022/11/28 04:28:30;;;;;;;6.10;5.20;;;;;;;6.52;100.00;100856.19;5034723;28;20028;-50
2022/11/28 04:30:58;;;;;;;7.85;5.00;;;;;;;6.53;100.00;100850.81;5035432;28;20029;-52
2022/11/28 04:33:29;;;;;;;6.93;4.88;;;;;;;6.53;100.00;100844.66;5034162;28;20061;-55
2022/11/28 04:35:55;;;;;;;6.95;5.45;;;;;;;6.53;100.00;100849.94;5034623;28;20463;-50
2022/11/28 04:38:24;;;;;;;6.55;5.50;;;;;;;6.52;100.00;100849.09;5034682;28;20021;-51
2022/11/28 04:40:55;;;;;;;6.15;5.15;;;;;;;6.53;100.00;100848.19;5033740;28;20037;-53
2022/11/28 04:43:29;;;;;;;5.75;5.15;;;;;;;6.53;100.00;100845.53;5027631;28;20026;-54
2022/11/28 04:46:00;;;;;;;10.15;5.93;;;;;;;6.53;100.00;100845.53;5034065;28;20447;-53
2022/11/28 04:48:26;;;;;;;6.40;5.72;;;;;;;6.54;100.00;100847.22;5034738;28;20052;-52
2022/11/28 04:51:22;;;;;;;6.65;5.40;;;;;;;6.55;100.00;100848.94;5032416;28;20025;-52
2022/11/28 04:53:58;;;;;;;6.93;5.85;;;;;;;6.55;100.00;100848.94;5029522;28;20037;-51
2022/11/28 04:56:32;;;;;;;5.90;5.30;;;;;;;6.53;100.00;100837.63;5025016;28;20032;-51
2022/11/28 04:58:59;;;;;;;7.22;6.30;;;;;;;6.54;100.00;100841.09;5034215;28;20463;-54
2022/11/28 05:01:29;;;;;;;6.85;6.15;;;;;;;6.53;100.00;100839.41;5035185;28;20030;-52
2022/11/28 05:03:55;;;;;;;7.57;6.07;;;;;;;6.56;100.00;100845.38;5034680;28;20072;-52
2022/11/28 05:06:26;;;;;;;6.82;5.93;;;;;;;6.56;100.00;100848.00;5036568;28;20045;-54
2022/11/28 05:08:51;;;;;;;6.38;5.78;;;;;;;6.57;100.00;100847.03;5034366;28;20021;-52
2022/11/28 05:11:17;;;;;;;8.57;6.18;;;;;;;6.57;100.00;100847.03;5027383;28;20026;-53
2022/11/28 05:13:43;;;;;;;8.23;6.60;;;;;;;6.58;100.00;100850.56;5034066;28;20025;-53
2022/11/28 05:16:11;;;;;;;7.03;6.28;;;;;;;6.58;100.00;100850.56;5036145;28;20088;-52
2022/11/28 05:18:37;;;;;;;7.40;6.70;;;;;;;6.59;100.00;100855.72;5033944;28;20438;-54
2022/11/28 05:21:05;;;;;;;7.15;6.43;;;;;;;6.60;100.00;100856.59;5036645;28;20033;-53
2022/11/28 05:23:30;;;;;;;6.93;6.23;;;;;;;6.61;100.00;100859.13;5037424;28;20025;-52
2022/11/28 05:25:56;;;;;;;7.45;6.70;;;;;;;6.62;100.00;100859.97;5033838;28;20383;-51
2022/11/28 05:28:21;;;;;;;7.72;6.90;;;;;;;6.62;100.00;100859.97;5033685;28;20036;-55
2022/11/28 05:30:55;;;;;;;9.65;6.50;;;;;;;6.63;100.00;100861.69;5033986;28;20071;-51
2022/11/28 05:33:21;;;;;;;7.13;6.47;;;;;;;6.62;100.00;100854.69;5030881;28;20037;-54
2022/11/28 05:35:46;;;;;;;8.45;6.80;;;;;;;6.64;100.00;100858.94;5033595;28;20368;-52
2022/11/28 05:38:11;;;;;;;9.18;6.70;;;;;;;6.64;100.00;100863.38;5033595;28;20037;-50
2022/11/28 05:40:42;;;;;;;9.77;7.00;;;;;;;6.65;100.00;100862.44;5033834;28;20086;-50
2022/11/28 05:43:08;;;;;;;7.97;6.65;;;;;;;6.65;100.00;100862.44;5029279;28;20029;-51
2022/11/28 05:45:33;;;;;;;8.18;7.22;;;;;;;6.65;100.00;100865.91;5033508;28;20079;-54
2022/11/28 05:47:58;;;;;;;10.20;6.63;;;;;;;6.66;100.00;100872.03;5033508;28;20057;-54
2022/11/28 05:50:24;;;;;;;7.68;6.85;;;;;;;6.66;100.00;100872.91;5033747;28;20116;-54
2022/11/28 05:52:49;;;;;;;8.20;7.32;;;;;;;6.67;100.00;100871.94;5034261;28;20479;-51
2022/11/28 05:55:14;;;;;;;8.43;7.30;;;;;;;6.67;100.00;100863.19;5033131;28;20061;-50
2022/11/28 05:57:39;;;;;;;8.00;7.20;;;;;;;6.69;100.00;100861.28;5033631;28;20033;-51
2022/11/28 06:00:05;;;;;;;11.73;6.90;;;;;;;6.69;100.00;100865.72;5032853;28;20043;-50
2022/11/28 06:02:33;;;;;;;8.18;7.38;;;;;;;6.69;100.00;100869.22;5033266;28;20277;-50
2022/11/28 06:04:59;;;;;;;8.70;6.82;;;;;;;6.69;100.00;100858.66;5029937;28;20364;-50
2022/11/28 06:07:24;;;;;;;9.20;7.43;;;;;;;6.70;100.00;100857.72;5032949;28;20031;-52
2022/11/28 06:09:49;;;;;;;8.50;7.30;;;;;;;6.71;100.00;100853.28;5032673;28;20055;-50
2022/11/28 06:12:14;;;;;;;7.85;7.13;;;;;;;6.71;100.00;100861.19;5033420;28;20467;-51
2022/11/28 06:14:40;;;;;;;8.35;7.45;;;;;;;6.70;100.00;100862.16;5032633;28;20025;-50
2022/11/28 06:17:05;;;;;;;8.40;7.57;;;;;;;6.70;100.00;100868.28;5029131;28;20080;-51
2022/11/28 06:19:30;;;;;;;8.25;7.55;;;;;;;6.70;100.00;100863.00;5036265;28;20033;-50
2022/11/28 06:21:56;;;;;;;8.45;7.55;;;;;;;6.71;100.00;100869.13;5032696;28;20044;-50
2022/11/28 06:24:21;;;;;;;8.23;7.43;;;;;;;6.71;100.00;100863.84;5029669;28;20486;-50
2022/11/28 06:26:46;;;;;;;10.38;8.00;;;;;;;6.72;100.00;100878.75;5033172;28;20111;-51
2022/11/28 06:29:12;;;;;;;9.60;7.93;;;;;;;6.72;100.00;100876.94;5032628;28;20120;-54
2022/11/28 06:31:37;;;;;;;9.18;8.27;;;;;;;6.73;100.00;100877.78;5037793;28;20029;-51
2022/11/28 06:34:02;;;;;;;8.55;7.75;;;;;;;6.73;100.00;100881.28;5032659;28;20030;-51
2022/11/28 06:36:29;;;;;;;8.38;7.55;;;;;;;6.74;100.00;100882.97;5032576;28;20025;-53
2022/11/28 06:38:54;;;;;;;8.60;7.75;;;;;;;6.75;100.00;100876.78;5032813;28;20026;-54
2022/11/28 06:41:20;;;;;;;8.82;7.80;;;;;;;6.76;100.00;100882.88;5032379;28;20017;-53
2022/11/28 06:43:45;;;;;;;8.18;7.45;;;;;;;6.76;100.00;100881.13;5023874;28;20129;-51
2022/11/28 06:46:17;;;;;;;9.38;8.40;;;;;;;6.77;100.00;100881.97;5027108;28;20032;-51
2022/11/28 06:48:43;;;;;;;8.98;8.07;;;;;;;6.78;100.00;100879.22;5032499;28;20033;-51
2022/11/28 06:51:11;;;;;;;9.40;8.43;;;;;;;6.76;100.00;100882.88;5029111;28;20025;-53
2022/11/28 06:53:36;;;;;;;9.25;8.35;;;;;;;6.78;100.00;100881.03;5032580;28;20460;-52
2022/11/28 06:56:06;;;;;;;9.18;8.23;;;;;;;6.79;100.00;100882.72;5032289;28;20025;-52
2022/11/28 06:58:31;;;;;;;9.70;8.07;;;;;;;6.79;100.00;100886.19;5032578;28;20041;-52
2022/11/28 07:01:03;;;;;;;10.75;8.32;;;;;;;6.80;100.00;100885.25;5032131;28;20025;-54
2022/11/28 07:03:28;;;;;;;8.95;8.05;;;;;;;6.80;100.00;100882.63;5031837;28;20029;-51
2022/11/28 07:05:53;;;;;;;9.55;8.65;;;;;;;6.81;100.00;100878.19;5028925;28;20032;-54
2022/11/28 07:08:19;;;;;;;9.52;8.52;;;;;;;6.80;100.00;100881.78;5031867;28;20471;-52
2022/11/28 07:10:44;;;;;;;9.93;8.55;;;;;;;6.80;100.00;100884.41;5031437;28;20029;-54
2022/11/28 07:13:09;;;;;;;9.07;8.18;;;;;;;6.80;100.00;100890.53;5034128;28;20025;-52
2022/11/28 07:15:34;;;;;;;9.07;8.27;;;;;;;6.82;100.00;100895.72;5031579;28;20475;-54
2022/11/28 07:18:00;;;;;;;9.18;8.27;;;;;;;6.83;100.00;100894.81;5031745;28;20025;-52
2022/11/28 07:20:25;;;;;;;10.38;9.27;;;;;;;6.84;100.00;100891.19;5031376;28;20071;-51
2022/11/28 07:22:50;;;;;;;9.27;8.23;;;;;;;6.83;100.00;100903.56;5030510;28;20017;-53
2022/11/28 07:25:16;;;;;;;10.15;8.73;;;;;;;6.82;100.00;100893.94;5031643;28;20070;-53
2022/11/28 07:27:42;;;;;;;10.65;8.43;;;;;;;6.83;100.00;100890.34;5031420;28;20049;-55
2022/11/28 07:30:08;;;;;;;10.43;8.68;;;;;;;6.82;100.00;100888.66;5022079;28;20196;-51
2022/11/28 07:32:34;;;;;;;9.95;8.50;;;;;;;6.84;100.00;100897.34;5029501;28;20112;-54
2022/11/28 07:34:59;;;;;;;9.57;8.63;;;;;;;6.87;100.00;100901.59;5025475;28;20125;-52
2022/11/28 07:37:24;;;;;;;9.75;8.75;;;;;;;6.88;100.00;100902.41;5029741;28;20022;-55
2022/11/28 07:39:50;;;;;;;10.18;9.15;;;;;;;6.88;100.00;100912.97;5022150;28;20556;-55
2022/11/28 07:42:15;;;;;;;11.85;8.63;;;;;;;6.89;100.00;100910.25;5022161;28;20034;-55
2022/11/28 07:44:40;;;;;;;8.98;8.13;;;;;;;6.90;100.00;100903.19;5027376;28;20506;-52
2022/11/28 07:47:05;;;;;;;9.57;8.02;;;;;;;6.90;100.00;100908.47;5026026;28;20082;-52
2022/11/28 07:49:31;;;;;;;11.38;8.35;;;;;;;6.91;100.00;100912.81;5027197;28;20080;-53
2022/11/28 07:51:57;;;;;;;9.95;8.93;;;;;;;6.90;100.00;100911.13;5024618;28;20025;-53
2022/11/28 07:54:22;;;;;;;9.93;8.80;;;;;;;6.91;100.00;100915.44;5027189;28;20113;-53
2022/11/28 07:56:47;;;;;;;12.13;9.00;;;;;;;6.92;100.00;100914.50;5031412;28;20116;-54
2022/11/28 07:59:13;;;;;;;9.57;8.57;;;;;;;6.91;100.00;100924.22;5030209;28;20038;-53
2022/11/28 08:01:38;;;;;;;9.90;8.90;;;;;;;6.94;100.00;100928.47;5030888;28;20072;-52
2022/11/28 08:04:05;;;;;;;8.90;8.02;;;;;;;6.93;100.00;100927.63;5032330;28;20456;-51
2022/11/28 08:06:36;;;;;;;9.65;8.32;;;;;;;6.94;100.00;100923.19;5030537;28;20116;-52
2022/11/28 08:09:02;;;;;;;12.05;9.05;;;;;;;6.94;100.00;100924.03;5032527;28;20037;-54
2022/11/28 08:11:29;;;;;;;11.35;9.75;;;;;;;6.96;100.00;100926.56;5029257;28;20037;-54
2022/11/28 08:13:54;;;;;;;11.70;9.82;;;;;;;6.96;100.00;100929.22;5033602;28;20026;-54
2022/11/28 08:16:22;;;;;;;11.18;9.32;;;;;;;6.98;100.00;100927.34;5029191;28;20435;-53
2022/11/28 08:18:48;;;;;;;11.43;9.68;;;;;;;6.98;100.00;100933.47;5030662;28;20029;-52
2022/11/28 08:21:17;;;;;;;11.20;9.98;;;;;;;7.00;100.00;100925.47;5024475;28;20122;-55
2022/11/28 08:23:44;;;;;;;11.82;10.60;;;;;;;7.02;100.00;100932.34;5026372;28;20091;-52
2022/11/28 08:26:12;;;;;;;13.30;10.25;;;;;;;7.02;100.00;100936.78;5025076;28;20738;-52
2022/11/28 08:28:38;;;;;;;13.73;9.95;;;;;;;7.02;100.00;100940.25;5031549;28;20057;-52
2022/11/28 08:31:13;;;;;;;12.23;10.93;;;;;;;7.04;100.00;100934.88;5032603;28;20093;-55
2022/11/28 08:33:39;;;;;;;12.55;10.98;;;;;;;7.06;100.00;100934.78;5029895;28;20546;-55
2022/11/28 08:36:06;;;;;;;14.20;11.18;;;;;;;7.06;100.00;100940.94;5031537;28;20040;-52
2022/11/28 08:38:31;;;;;;;14.25;11.10;;;;;;;7.08;100.00;100946.09;5029960;28;20030;-51
2022/11/28 08:41:04;;;;;;;14.30;11.27;;;;;;;7.10;100.00;100949.53;5025292;28;20084;-52
2022/11/28 08:43:30;;;;;;;13.27;10.93;;;;;;;7.10;100.00;100945.09;5030376;28;20029;-57
2022/11/28 08:45:55;;;;;;;14.35;11.23;;;;;;;7.12;100.00;100947.63;5031206;28;20729;-53
2022/11/28 08:48:20;;;;;;;15.30;11.52;;;;;;;7.13;100.00;100949.34;5032884;28;20033;-55
2022/11/28 08:50:47;;;;;;;14.85;11.82;;;;;;;7.14;100.00;100951.88;5030717;28;20073;-55
2022/11/28 08:53:12;;;;;;;16.60;12.23;;;;;;;7.14;100.00;100943.94;5028964;28;20049;-51
2022/11/28 08:55:43;;;;;;;14.77;11.60;;;;;;;7.15;100.00;100950.09;5029655;28;20037;-52
2022/11/28 08:58:09;;;;;;;14.57;10.75;;;;;;;7.16;100.00;100943.84;5031494;28;20033;-51
2022/11/28 09:00:34;;;;;;;15.65;11.35;;;;;;;7.17;100.00;100941.13;5029119;28;20439;-53
2022/11/28 09:03:00;;;;;;;14.30;11.10;;;;;;;7.19;100.00;100941.91;5031534;28;20108;-53
2022/11/28 09:05:27;;;;;;;15.75;11.73;;;;;;;7.20;100.00;100942.75;5030536;28;20021;-55
2022/11/28 09:07:55;;;;;;;15.65;11.32;;;;;;;7.22;100.00;100946.13;5030472;28;20029;-52
2022/11/28 09:10:21;;;;;;;12.70;11.23;;;;;;;7.23;100.00;100945.19;5032512;28;20029;-55
2022/11/28 09:12:46;;;;;;;14.43;11.27;;;;;;;7.27;100.00;100951.16;5031630;28;20387;-54
2022/11/28 09:15:12;;;;;;;16.40;11.70;;;;;;;7.28;100.00;100945.78;5032927;28;20029;-55
2022/11/28 09:17:39;;;;;;;15.18;10.60;;;;;;;7.30;100.00;100950.97;5029017;28;20076;-54
2022/11/28 09:20:05;;;;;;;14.23;10.68;;;;;;;7.30;100.00;100959.72;5032496;28;20029;-52
2022/11/28 09:22:31;;;;;;;14.68;10.50;;;;;;;7.32;100.00;100963.13;5032497;28;20405;-52
2022/11/28 09:24:56;;;;;;;12.48;9.95;;;;;;;7.33;100.00;100964.00;5034381;28;20109;-52
2022/11/28 09:27:21;;;;;;;13.35;10.73;;;;;;;7.34;100.00;100961.22;5032462;28;20057;-53
2022/11/28 09:29:47;;;;;;;14.27;10.73;;;;;;;7.36;100.00;100966.41;5031993;28;20021;-53
2022/11/28 09:32:12;;;;;;;12.15;10.20;;;;;;;7.35;100.00;100965.56;5035193;28;20387;-53
2022/11/28 09:34:37;;;;;;;12.48;10.73;;;;;;;7.37;100.00;100961.03;5032293;28;20025;-53
2022/11/28 09:37:03;;;;;;;13.38;10.70;;;;;;;7.39;100.00;100966.22;5033556;28;20189;-54
2022/11/28 09:39:28;;;;;;;13.18;10.68;;;;;;;7.41;100.00;100972.25;5037325;28;20033;-52
2022/11/28 09:42:04;;;;;;;14.23;11.15;;;;;;;7.42;100.00;100966.06;5005488;28;20034;-52
2022/11/28 09:44:36;;;;;;;13.88;11.27;;;;;;;7.43;100.00;100957.19;5029545;28;20112;-53
2022/11/28 09:47:07;;;;;;;12.93;10.38;;;;;;;7.46;100.00;100961.41;5032101;28;20368;-53
2022/11/28 09:49:39;;;;;;;13.93;11.07;;;;;;;7.47;100.00;100971.91;5030344;28;20033;-52
2022/11/28 09:52:23;;;;;;;16.92;11.93;;;;;;;7.50;100.00;100968.22;5029766;28;20025;-54
2022/11/28 09:55:19;;;;;;;15.32;11.40;;;;;;;7.53;100.00;100966.25;5031442;28;20092;-53
2022/11/28 09:57:47;;;;;;;15.02;11.85;;;;;;;7.55;100.00;100974.91;5031121;28;20027;-55
2022/11/28 10:00:33;;;;;;;16.20;12.85;;;;;;;7.58;100.00;100973.91;5031629;28;20053;-55
2022/11/28 10:03:16;;;;;;;16.02;13.32;;;;;;;7.60;100.00;100972.00;5030993;28;20033;-53
2022/11/28 10:05:53;;;;;;;16.95;13.25;;;;;;;7.62;100.00;100969.25;5031058;28;20041;-53
2022/11/28 10:08:37;;;;;;;18.27;13.55;;;;;;;7.64;100.00;100965.56;5033495;28;20037;-55
2022/11/28 10:11:29;;;;;;;16.75;14.15;;;;;;;7.67;100.00;100968.03;5026792;28;20105;-55
2022/11/28 10:14:15;;;;;;;19.10;13.68;;;;;;;7.67;100.00;100965.38;5028787;28;20033;-54
2022/11/28 10:17:28;;;;;;;17.58;14.00;;;;;;;7.72;100.00;100965.09;5021549;28;20084;-52
2022/11/28 10:20:11;;;;;;;17.27;14.35;;;;;;;7.71;100.00;100969.53;5014435;28;20038;-54
2022/11/28 10:22:39;;;;;;;17.27;14.13;;;;;;;7.75;100.00;100964.91;5027536;28;20107;-52
2022/11/28 10:25:27;;;;;;;18.58;13.75;;;;;;;7.78;100.00;100967.38;5025295;28;20033;-51
2022/11/28 10:27:53;;;;;;;17.05;13.88;;;;;;;7.81;100.00;100967.19;5021401;28;20556;-54
2022/11/28 10:30:28;;;;;;;18.20;14.73;;;;;;;7.82;100.00;100963.56;5013137;28;20029;-55
2022/11/28 10:33:14;;;;;;;18.70;14.07;;;;;;;7.87;100.00;100965.94;5013358;28;20496;-52
2022/11/28 10:36:00;;;;;;;20.02;14.55;;;;;;;7.92;100.00;100969.13;5017522;28;20047;-51
2022/11/28 10:38:28;;;;;;;19.58;14.93;;;;;;;7.92;100.00;100966.47;5010790;28;20478;-51
2022/11/28 10:41:28;;;;;;;17.08;14.52;;;;;;;7.96;100.00;100968.00;5013819;28;20044;-52
2022/11/28 10:44:01;;;;;;;19.85;16.23;;;;;;;7.98;100.00;100974.03;5005435;28;20021;-55
2022/11/28 10:46:42;;;;;;;22.60;16.15;;;;;;;8.01;100.00;100978.25;5010037;28;20038;-55
2022/11/28 10:49:32;;;;;;;21.23;16.85;;;;;;;8.05;100.00;100977.13;5015130;28;20614;-53
2022/11/28 10:51:57;;;;;;;23.02;17.02;;;;;;;8.04;100.00;100978.06;5010731;28;20113;-53
2022/11/28 10:54:37;;;;;;;21.70;17.30;;;;;;;8.06;100.00;100974.41;5011781;28;21152;-55
2022/11/28 10:57:10;;;;;;;21.70;17.27;;;;;;;8.08;100.00;100979.59;5011636;28;20018;-52
2022/11/28 10:59:42;;;;;;;23.13;18.33;;;;;;;8.08;100.00;100983.06;5013085;28;20033;-52
2022/11/28 11:02:29;;;;;;;23.02;18.33;;;;;;;8.11;100.00;100977.59;5010710;28;20029;-55
2022/11/28 11:04:54;;;;;;;25.60;18.73;;;;;;;8.11;100.00;100979.38;5013541;28;20025;-54
2022/11/28 11:07:28;;;;;;;25.63;19.33;;;;;;;8.13;100.00;100982.78;5013008;28;20026;-52
2022/11/28 11:09:59;;;;;;;22.65;18.25;;;;;;;8.13;100.00;100980.97;5012950;28;20029;-55
2022/11/28 11:12:29;;;;;;;22.40;18.33;;;;;;;8.16;100.00;100979.94;5014465;28;20064;-52
2022/11/28 11:14:54;;;;;;;26.75;19.95;;;;;;;8.17;100.00;100968.41;5011662;28;20257;-51
2022/11/28 11:17:25;;;;;;;25.23;19.27;;;;;;;8.19;100.00;100973.59;5011385;28;20235;-53
2022/11/28 11:19:50;;;;;;;26.27;20.70;;;;;;;8.22;100.00;100973.41;5011851;28;20574;-52
2022/11/28 11:22:27;;;;;;;24.88;19.38;;;;;;;8.21;100.00;100972.56;5014993;28;20117;-53
2022/11/28 11:25:11;;;;;;;25.52;20.70;;;;;;;8.24;100.00;100974.16;5015548;28;20021;-55
2022/11/28 11:27:36;;;;;;;26.67;19.95;;;;;;;8.23;100.00;100969.81;5012795;28;20046;-52
2022/11/28 11:30:37;;;;;;;24.73;20.35;;;;;;;8.24;100.00;100972.34;5019439;28;20099;-51
2022/11/28 11:33:05;;;;;;;29.27;21.60;;;;;;;8.27;100.00;100966.84;5028546;28;20117;-52
2022/11/28 11:35:35;;;;;;;28.00;21.80;;;;;;;8.28;100.00;100965.91;5030125;28;20049;-52